Time;durP1;ratioP1;P1;durP2;ratioP2;P2;SDS_P1;SDS_P2;PMS_P1;PMS_P2;Temp;Humidity;BMP_temperature;BMP_pressure;BME280_temperature;BME280_humidity;BME280_pressure;Samples;Min_cycle;Max_cycle;Signal;HPM_P1;HPM_P2
2022/06/06 05:49:21;;;;;;;5.45;2.97;;;;;;;21.62;98.47;96753.69;4743077;30;20233;-59
2022/06/06 05:52:12;;;;;;;5.88;3.10;;;;;;;21.52;96.45;96752.00;4726918;30;20067;-59
2022/06/06 05:54:38;;;;;;;5.45;3.08;;;;;;;21.71;94.52;96748.19;4756098;30;20068;-60
2022/06/06 05:57:37;;;;;;;7.30;3.53;;;;;;;22.04;93.31;96749.56;4751911;30;20224;-59
2022/06/06 06:00:08;;;;;;;3.17;2.72;;;;;;;22.39;85.41;96756.03;4749547;30;20392;-60
2022/06/06 06:02:47;;;;;;;5.40;2.75;;;;;;;22.79;82.77;96776.88;4740815;30;20067;-66
2022/06/06 06:05:21;;;;;;;5.35;2.85;;;;;;;21.72;90.60;96789.22;4740719;30;20066;-72
2022/06/06 06:07:54;;;;;;;10.98;3.58;;;;;;;21.34;98.16;96791.19;4741737;30;20064;-58
2022/06/06 06:10:31;;;;;;;5.83;3.50;;;;;;;21.30;95.15;96717.25;4741923;30;20068;-65
2022/06/06 06:13:46;;;;;;;6.10;3.50;;;;;;;22.62;90.79;96781.06;4751154;30;20071;-61
2022/06/06 06:16:16;;;;;;;6.47;3.53;;;;;;;22.59;87.09;96710.63;4743975;30;20544;-60
2022/06/06 06:18:55;;;;;;;5.40;3.17;;;;;;;23.45;84.95;96781.34;4755544;30;20060;-58
2022/06/06 06:21:28;;;;;;;4.03;2.88;;;;;;;23.42;84.50;96753.97;4752481;30;20063;-64
2022/06/06 06:24:02;;;;;;;6.25;3.67;;;;;;;23.23;78.87;96795.44;4754381;30;20683;-59
2022/06/06 06:26:30;;;;;;;6.65;3.50;;;;;;;22.57;86.71;96792.19;4754100;30;20064;-58
2022/06/06 06:29:04;;;;;;;6.35;3.03;;;;;;;23.35;83.78;96791.78;4755708;30;20098;-57
2022/06/06 06:31:42;;;;;;;11.63;3.47;;;;;;;23.66;84.53;96791.84;4757766;30;20070;-61
2022/06/06 06:34:20;;;;;;;4.72;2.83;;;;;;;23.90;77.85;96787.22;4752675;30;20074;-63
2022/06/06 06:37:16;;;;;;;4.45;3.35;;;;;;;24.43;76.12;96800.06;4744192;30;20100;-67
2022/06/06 06:39:45;;;;;;;4.10;3.20;;;;;;;24.64;76.78;96802.03;4749525;30;20067;-60
2022/06/06 06:42:24;;;;;;;4.30;3.00;;;;;;;24.98;73.61;96804.63;4746972;30;20064;-64
2022/06/06 06:44:54;;;;;;;4.05;3.15;;;;;;;24.59;74.40;96720.50;4760425;30;20083;-63
2022/06/06 06:47:29;;;;;;;6.65;3.38;;;;;;;25.38;74.74;96803.69;4760949;30;20155;-56
2022/06/06 06:50:07;;;;;;;6.70;3.45;;;;;;;25.00;72.00;96748.25;4746277;30;20083;-64
2022/06/06 06:52:54;;;;;;;6.97;3.85;;;;;;;25.38;71.88;96810.16;4752493;30;20075;-58
2022/06/06 06:55:27;;;;;;;4.25;3.60;;;;;;;25.31;69.64;96811.25;4743660;30;20059;-56
2022/06/06 06:57:59;;;;;;;6.75;2.97;;;;;;;25.40;69.10;96812.53;4757074;30;20056;-58
2022/06/06 07:00:30;;;;;;;5.68;3.38;;;;;;;25.17;70.55;96811.88;4755225;30;20607;-60
2022/06/06 07:09:31;;;;;;;;;;;;;;;23.74;79.98;96818.59;4753294;30;20453;-65
2022/06/06 07:12:16;;;;;;;6.20;3.88;;;;;;;23.06;89.88;96798.91;4745668;30;20376;-58
2022/06/06 07:14:56;;;;;;;9.07;4.35;;;;;;;22.66;92.64;96766.84;4756270;30;20551;-57
2022/06/06 07:17:25;;;;;;;4.78;3.45;;;;;;;22.70;93.65;96815.53;4750816;30;20517;-62
2022/06/06 07:19:59;;;;;;;5.45;4.00;;;;;;;22.66;97.97;96807.19;4753441;30;20071;-59
2022/06/06 07:22:59;;;;;;;9.30;4.30;;;;;;;22.80;94.60;96783.28;4753468;30;20064;-62
2022/06/06 07:25:21;;;;;;;6.55;4.03;;;;;;;23.21;93.65;96797.13;4748058;30;20060;-59
2022/06/06 07:27:48;;;;;;;18.30;12.73;;;;;;;23.46;92.59;96791.38;4752830;30;20337;-60
2022/06/06 07:30:16;;;;;;;10.20;4.80;;;;;;;23.55;89.23;96791.47;4756243;30;20556;-57
2022/06/06 07:32:56;;;;;;;10.73;7.40;;;;;;;23.60;90.55;96765.41;4754939;30;20063;-59
2022/06/06 07:35:35;;;;;;;11.95;5.82;;;;;;;23.59;83.22;96715.75;4754843;30;20573;-58
2022/06/06 07:38:30;;;;;;;6.63;4.68;;;;;;;23.85;85.88;96787.88;4755741;30;20051;-60
2022/06/06 07:41:28;;;;;;;7.13;5.28;;;;;;;23.92;87.41;96783.97;4751940;30;20068;-61
2022/06/06 07:44:20;;;;;;;6.47;5.18;;;;;;;23.68;84.58;96780.84;4752613;30;20444;-59
2022/06/06 07:47:12;;;;;;;12.63;7.20;;;;;;;24.63;85.64;96789.09;4757155;30;20079;-61
2022/06/06 07:49:38;;;;;;;11.77;5.63;;;;;;;25.22;81.70;96801.94;4742039;30;20452;-64
2022/06/06 07:52:27;;;;;;;5.82;4.40;;;;;;;25.59;79.32;96808.41;4752775;30;20072;-63
2022/06/06 07:55:22;;;;;;;5.82;4.72;;;;;;;25.28;78.64;96805.72;4756835;30;20063;-57
2022/06/06 07:58:44;;;;;;;4.93;4.32;;;;;;;25.71;75.61;96796.09;4755432;30;20068;-60
2022/06/06 08:01:22;;;;;;;4.88;4.45;;;;;;;25.36;72.12;96658.72;4719393;30;20063;-64
2022/06/06 08:04:03;;;;;;;5.68;5.18;;;;;;;25.60;71.58;96736.22;4751011;30;20157;-58
2022/06/06 08:06:49;;;;;;;8.38;5.18;;;;;;;26.08;69.93;96808.97;4752807;30;20971;-59
2022/06/06 08:09:20;;;;;;;5.25;4.75;;;;;;;25.87;72.57;96807.88;4755614;30;20074;-65
2022/06/06 08:12:02;;;;;;;4.25;3.85;;;;;;;25.87;71.12;96807.88;4753281;30;20051;-67
2022/06/06 08:14:28;;;;;;;8.77;5.63;;;;;;;25.82;71.32;96805.69;4752623;30;20074;-69
2022/06/06 08:17:10;;;;;;;3.95;3.55;;;;;;;25.61;69.42;96737.81;4753538;30;20445;-65
2022/06/06 08:19:58;;;;;;;7.63;5.57;;;;;;;26.46;71.45;96803.44;4747664;30;20064;-65
2022/06/06 08:22:26;;;;;;;5.43;4.90;;;;;;;26.44;69.66;96771.88;4740898;30;20060;-60
2022/06/06 08:24:57;;;;;;;3.35;3.05;;;;;;;26.41;67.88;96761.47;4742672;30;20072;-64
2022/06/06 08:27:32;;;;;;;3.92;3.63;;;;;;;26.07;68.69;96781.81;4742149;30;20063;-64
2022/06/06 08:29:59;;;;;;;5.72;3.53;;;;;;;25.77;68.55;96812.00;4742093;30;20153;-58
2022/06/06 08:32:27;;;;;;;5.25;4.82;;;;;;;25.91;69.13;96797.13;4742677;30;20060;-64
2022/06/06 08:34:54;;;;;;;5.35;4.85;;;;;;;26.37;66.63;96795.72;4743675;30;20072;-59
2022/06/06 08:37:21;;;;;;;7.13;5.25;;;;;;;27.09;65.51;96811.59;4743295;30;20133;-64
2022/06/06 08:40:02;;;;;;;5.63;5.10;;;;;;;26.65;65.86;96808.56;4743749;30;20064;-60
2022/06/06 08:42:33;;;;;;;6.22;5.65;;;;;;;25.81;65.88;96814.69;4743786;30;20060;-65
2022/06/06 08:45:21;;;;;;;5.85;5.25;;;;;;;25.53;68.30;96816.00;4741909;30;20072;-59
2022/06/06 08:48:14;;;;;;;6.68;5.05;;;;;;;26.15;66.20;96812.25;4742931;30;20090;-64
2022/06/06 08:50:55;;;;;;;6.72;5.35;;;;;;;26.05;65.83;96829.78;4742251;30;20542;-62
2022/06/06 08:53:28;;;;;;;7.43;5.20;;;;;;;24.70;69.28;96830.53;4743086;30;20493;-61
2022/06/06 08:56:14;;;;;;;7.47;5.97;;;;;;;24.83;70.41;96822.72;4743402;30;20060;-57
2022/06/06 08:59:18;;;;;;;6.78;6.18;;;;;;;24.57;70.77;96838.34;4756300;30;20060;-61
2022/06/06 09:02:09;;;;;;;6.20;5.60;;;;;;;24.54;72.09;96842.91;4743026;30;20072;-60
2022/06/06 09:04:57;;;;;;;8.30;6.18;;;;;;;24.78;68.83;96869.47;4756655;30;20072;-63
2022/06/06 09:07:46;;;;;;;8.35;6.70;;;;;;;24.74;68.58;96843.31;4743055;30;20064;-65
2022/06/06 09:10:45;;;;;;;7.88;6.63;;;;;;;25.09;68.41;96855.97;4742683;30;20091;-64
2022/06/06 09:13:34;;;;;;;6.82;5.47;;;;;;;25.37;65.08;96847.50;4743066;30;20079;-58
2022/06/06 09:16:39;;;;;;;6.35;5.60;;;;;;;25.54;64.41;96840.25;4742003;30;20091;-66
2022/06/06 09:19:42;;;;;;;7.57;5.45;;;;;;;25.55;62.46;96841.81;4741530;30;20083;-64
2022/06/06 09:22:50;;;;;;;7.93;4.73;;;;;;;26.06;63.09;96837.03;4725544;30;20056;-60
2022/06/06 09:25:41;;;;;;;4.68;4.25;;;;;;;26.12;64.59;96829.44;4742976;30;20118;-60
2022/06/06 09:28:17;;;;;;;5.80;4.80;;;;;;;26.54;60.12;96827.38;4741365;30;20059;-59
2022/06/06 09:30:55;;;;;;;5.20;4.80;;;;;;;26.72;58.14;96813.09;4741632;30;20460;-57
2022/06/06 09:33:58;;;;;;;10.38;7.85;;;;;;;27.09;57.15;96805.91;4741871;30;20068;-67
2022/06/06 09:36:40;;;;;;;10.13;8.15;;;;;;;26.68;57.14;96809.66;4741933;30;20118;-60
2022/06/06 09:39:14;;;;;;;8.98;6.40;;;;;;;25.82;60.22;96719.75;4741694;30;20067;-62
2022/06/06 09:42:02;;;;;;;13.02;8.45;;;;;;;27.25;57.28;96794.06;4742607;30;20068;-60
2022/06/06 09:44:38;;;;;;;8.05;5.47;;;;;;;27.49;53.99;96791.22;4741544;30;20064;-66
2022/06/06 09:48:01;;;;;;;19.45;10.70;;;;;;;28.17;52.90;96813.44;4741573;30;20060;-59
2022/06/06 09:50:47;;;;;;;10.95;7.45;;;;;;;28.31;49.63;96780.53;4669360;30;20058;-61
2022/06/06 09:53:39;;;;;;;8.45;6.28;;;;;;;27.76;50.54;96786.03;4678307;30;20062;-63
2022/06/06 09:59:44;;;;;;;6.35;4.63;;;;;;;28.39;51.61;96780.91;4735349;30;20055;-60
2022/06/06 10:02:11;;;;;;;;;;;;;;;28.26;51.39;96778.38;4743962;30;20064;-61
2022/06/06 10:04:59;;;;;;;5.18;4.78;;;;;;;28.31;52.08;96785.44;4752636;30;20452;-60
2022/06/06 10:08:03;;;;;;;4.88;4.47;;;;;;;28.01;51.81;96796.09;4738869;30;20090;-61
2022/06/06 10:10:59;;;;;;;5.53;4.47;;;;;;;27.34;51.90;96811.13;4742046;30;20067;-58
2022/06/06 10:13:58;;;;;;;5.00;4.60;;;;;;;27.71;51.83;96805.88;4734869;30;20079;-64
2022/06/06 10:16:41;;;;;;;5.25;4.80;;;;;;;26.40;54.54;96823.19;4747329;30;20082;-61
2022/06/06 10:19:30;;;;;;;10.23;5.43;;;;;;;26.09;56.05;96830.41;4757535;30;20198;-59
2022/06/06 10:22:15;;;;;;;6.07;4.68;;;;;;;25.69;55.05;96827.78;4740660;30;20063;-61
2022/06/06 10:25:12;;;;;;;6.00;5.03;;;;;;;25.82;56.93;96830.44;4760204;30;20646;-59
2022/06/06 10:27:57;;;;;;;4.68;4.28;;;;;;;25.12;57.84;96812.50;4736369;30;20103;-58
2022/06/06 10:30:28;;;;;;;7.00;5.00;;;;;;;25.31;59.14;96813.28;4755567;30;20066;-57
2022/06/06 10:33:19;;;;;;;5.47;4.97;;;;;;;25.53;57.11;96821.66;4755815;30;20070;-58
2022/06/06 10:35:57;;;;;;;5.38;4.10;;;;;;;25.70;56.10;96814.38;4754954;30;20078;-59
2022/06/06 10:38:52;;;;;;;7.90;5.30;;;;;;;25.98;56.66;96845.06;4736899;30;20087;-60
2022/06/06 10:41:37;;;;;;;7.40;4.45;;;;;;;25.87;56.19;96807.88;4755380;30;20118;-61
2022/06/06 10:44:22;;;;;;;4.45;4.05;;;;;;;25.81;56.90;96818.31;4753136;30;20098;-63
2022/06/06 10:46:55;;;;;;;5.15;3.97;;;;;;;25.46;55.82;96816.31;4756526;30;20072;-62
2022/06/06 10:49:24;;;;;;;7.17;5.17;;;;;;;25.34;55.88;96826.53;4750830;30;20070;-59
2022/06/06 10:52:09;;;;;;;5.00;3.70;;;;;;;25.14;56.42;96829.84;4756503;30;20309;-62
2022/06/06 10:55:01;;;;;;;7.05;3.65;;;;;;;25.56;55.54;96837.75;4755180;30;20059;-61
2022/06/06 10:57:58;;;;;;;4.20;3.75;;;;;;;25.22;55.44;96836.78;4753344;30;20071;-65
2022/06/06 11:00:43;;;;;;;3.92;3.63;;;;;;;25.12;55.80;96831.53;4757382;30;20067;-60
2022/06/06 11:03:49;;;;;;;5.28;4.47;;;;;;;25.29;56.33;96836.44;4753176;30;20082;-65
2022/06/06 11:06:36;;;;;;;4.28;3.80;;;;;;;25.54;56.38;96838.22;4656779;30;20058;-59
2022/06/06 11:09:42;;;;;;;3.80;3.50;;;;;;;25.53;56.19;96838.69;4751597;30;20068;-61
2022/06/06 11:12:30;;;;;;;15.65;11.77;;;;;;;25.28;56.66;96842.59;4751212;30;20071;-59
2022/06/06 11:15:00;;;;;;;8.70;7.30;;;;;;;25.54;56.15;96837.41;4734545;30;20071;-60
2022/06/06 11:17:36;;;;;;;4.30;4.00;;;;;;;25.47;55.11;96847.03;4754314;30;20501;-67
2022/06/06 11:20:28;;;;;;;5.20;3.75;;;;;;;25.22;56.59;96845.28;4754686;30;20079;-64
2022/06/06 11:23:41;;;;;;;4.78;3.60;;;;;;;26.05;53.94;96889.41;4740670;30;20100;-68
2022/06/06 11:26:40;;;;;;;6.22;4.53;;;;;;;25.60;55.26;96832.69;4755100;30;20146;-69
2022/06/06 11:29:19;;;;;;;6.07;3.92;;;;;;;25.64;56.04;96834.09;4754167;30;20524;-64
2022/06/06 11:32:16;;;;;;;4.10;3.63;;;;;;;26.36;53.84;96828.25;4759124;30;20063;-60
2022/06/06 11:35:12;;;;;;;3.80;3.50;;;;;;;26.54;53.09;96822.47;4741365;30;20056;-64
2022/06/06 11:37:55;;;;;;;3.25;3.03;;;;;;;26.17;51.80;96767.13;4749457;30;20060;-62
2022/06/06 11:40:48;;;;;;;3.90;3.58;;;;;;;26.61;52.94;96809.97;4751211;30;20071;-61
2022/06/06 11:43:34;;;;;;;6.30;4.43;;;;;;;27.25;50.77;96791.22;4746644;30;20068;-75
2022/06/06 11:46:19;;;;;;;4.00;3.25;;;;;;;27.05;51.01;96799.59;4743770;30;20068;-60
2022/06/06 11:49:15;;;;;;;4.78;3.58;;;;;;;26.89;51.88;96790.75;4749794;30;20063;-69
2022/06/06 11:52:10;;;;;;;5.63;4.05;;;;;;;27.19;50.77;96793.16;4753467;30;20074;-60
2022/06/06 11:54:55;;;;;;;4.70;3.92;;;;;;;27.35;47.24;96789.91;4744216;30;20068;-60
2022/06/06 11:57:35;;;;;;;3.95;3.45;;;;;;;27.04;50.21;96786.66;4743221;30;20056;-61
2022/06/06 12:00:06;;;;;;;4.03;3.08;;;;;;;27.23;47.91;96776.72;4742337;30;20064;-66
2022/06/06 12:02:41;;;;;;;5.10;3.42;;;;;;;27.28;46.24;96778.94;4743954;30;20402;-66
2022/06/06 12:05:20;;;;;;;4.03;3.72;;;;;;;27.68;45.62;96784.06;4743557;30;20072;-68
2022/06/06 12:08:11;;;;;;;5.40;3.72;;;;;;;27.48;45.77;96773.34;4743097;30;20064;-61
2022/06/06 12:10:55;;;;;;;3.90;3.60;;;;;;;26.91;45.15;96757.69;4744269;30;20587;-65
2022/06/06 12:13:34;;;;;;;3.88;3.58;;;;;;;26.80;46.08;96766.00;4743032;30;20570;-61
2022/06/06 12:16:06;;;;;;;6.18;4.28;;;;;;;26.93;46.82;96766.53;4740579;30;20070;-62
2022/06/06 12:19:03;;;;;;;4.35;4.00;;;;;;;26.87;47.50;96730.72;4754600;30;20070;-67
2022/06/06 12:21:45;;;;;;;3.88;3.05;;;;;;;26.89;46.27;96757.38;4743739;30;20056;-60
2022/06/06 12:24:37;;;;;;;3.72;3.53;;;;;;;27.16;46.17;96754.31;4743549;30;20064;-68
2022/06/06 12:27:25;;;;;;;4.00;3.20;;;;;;;26.89;48.53;96757.38;4743762;30;20064;-67
2022/06/06 12:29:51;;;;;;;3.58;3.38;;;;;;;26.77;50.07;96758.44;4744245;30;20068;-67
2022/06/06 12:32:27;;;;;;;6.63;3.80;;;;;;;27.17;49.23;96755.91;4743747;30;20995;-60
2022/06/06 12:35:05;;;;;;;6.53;4.55;;;;;;;27.74;47.91;96743.03;4743690;30;20187;-70
2022/06/06 12:37:55;;;;;;;5.65;3.90;;;;;;;27.06;47.30;96612.72;4743815;30;20068;-62
2022/06/06 12:40:44;;;;;;;5.53;3.28;;;;;;;27.89;47.87;96743.84;4743315;30;20082;-61
2022/06/06 12:43:42;;;;;;;4.35;3.60;;;;;;;29.37;44.84;96755.06;4743614;30;20068;-61
2022/06/06 12:46:32;;;;;;;3.40;3.15;;;;;;;28.60;46.24;96756.88;4743406;30;20070;-66
2022/06/06 12:48:58;;;;;;;4.72;3.92;;;;;;;28.49;47.23;96765.28;4743748;30;20765;-66
2022/06/06 12:51:39;;;;;;;4.22;3.50;;;;;;;28.68;46.50;96770.22;4743422;30;20358;-61
2022/06/06 12:57:32;;;;;;;4.80;3.63;;;;;;;25.18;48.26;96439.19;4743186;30;20060;-60
2022/06/06 13:01:37;;;;;;;3.63;3.33;;;;;;;26.82;49.77;96769.13;4742482;30;20604;-61
2022/06/06 13:03:24;;;;;;;8.10;3.88;;;;;;;26.44;51.54;96766.97;4741983;30;20113;-59
2022/06/06 13:06:04;;;;;;;3.50;3.20;;;;;;;25.46;52.89;96725.53;4749382;30;20532;-61
2022/06/06 13:09:02;;;;;;;3.95;3.20;;;;;;;25.21;53.47;96726.66;4737073;30;20131;-60
2022/06/06 13:11:38;;;;;;;5.10;3.45;;;;;;;25.92;51.90;96758.19;4734442;30;20069;-64
2022/06/06 13:14:20;;;;;;;4.05;3.55;;;;;;;26.29;52.38;96753.94;4732956;30;20075;-58
2022/06/06 13:17:21;;;;;;;3.10;2.90;;;;;;;26.00;53.03;96762.28;4740409;30;20113;-59
2022/06/06 13:19:56;;;;;;;3.17;2.92;;;;;;;25.77;52.07;96768.63;4739352;30;20090;-61
2022/06/06 13:22:41;;;;;;;3.10;2.90;;;;;;;25.96;52.74;96765.28;4740115;30;20056;-60
2022/06/06 13:25:17;;;;;;;3.80;3.50;;;;;;;26.22;52.07;96771.34;4728728;30;20056;-63
2022/06/06 13:28:10;;;;;;;3.95;3.28;;;;;;;26.22;52.47;96771.34;4710088;30;20067;-63
2022/06/06 13:30:37;;;;;;;3.22;3.00;;;;;;;26.57;51.53;96755.38;4726463;30;20072;-59
2022/06/06 13:33:22;;;;;;;3.50;3.30;;;;;;;26.34;52.44;96756.13;4739493;30;20139;-60
2022/06/06 13:36:11;;;;;;;3.28;3.08;;;;;;;26.01;52.70;96772.38;4736516;30;20666;-67
2022/06/06 13:38:55;;;;;;;3.20;2.90;;;;;;;26.27;51.44;96773.53;4735403;30;20060;-63
2022/06/06 13:41:45;;;;;;;5.65;3.30;;;;;;;25.74;51.87;96741.22;4736922;30;20064;-62
2022/06/06 13:44:42;;;;;;;4.25;3.55;;;;;;;26.15;52.07;96771.69;4765914;30;20068;-60
2022/06/06 13:47:49;;;;;;;3.13;2.92;;;;;;;26.22;50.11;96777.03;4739836;30;20470;-61
2022/06/06 13:50:45;;;;;;;3.65;2.80;;;;;;;26.40;51.12;96771.25;4739625;30;20543;-61
2022/06/06 13:53:24;;;;;;;3.30;3.00;;;;;;;26.33;51.37;96763.88;4739257;30;20071;-61
2022/06/06 13:56:24;;;;;;;3.70;2.80;;;;;;;26.34;52.19;96767.50;4748725;30;20062;-59
2022/06/06 13:59:00;;;;;;;3.78;3.17;;;;;;;27.08;50.31;96753.13;4735700;30;20060;-60
2022/06/06 14:01:40;;;;;;;4.72;3.40;;;;;;;27.96;48.68;96712.09;4737775;30;20124;-59
2022/06/06 14:04:22;;;;;;;5.03;2.88;;;;;;;28.98;45.83;96756.63;4737064;30;20507;-62
2022/06/06 14:06:52;;;;;;;3.35;3.00;;;;;;;29.48;44.05;96752.34;4757757;30;21283;-65
2022/06/06 14:09:36;;;;;;;3.40;3.10;;;;;;;29.28;43.59;96749.50;4773561;30;20068;-65
2022/06/06 14:12:23;;;;;;;3.50;3.25;;;;;;;29.12;44.03;96755.78;4744698;30;20064;-60
2022/06/06 14:14:56;;;;;;;4.10;3.53;;;;;;;29.88;42.95;96763.66;4732319;30;20490;-60
2022/06/06 14:17:28;;;;;;;3.60;3.35;;;;;;;30.03;41.08;96758.63;4735417;30;20060;-60
2022/06/06 14:20:05;;;;;;;3.78;3.58;;;;;;;29.62;41.74;96757.16;4748682;30;20067;-60
2022/06/06 14:22:35;;;;;;;3.22;3.05;;;;;;;30.03;40.73;96764.31;4745348;30;20073;-67
2022/06/06 14:25:03;;;;;;;2.92;2.72;;;;;;;30.90;39.92;96759.78;4744675;30;20882;-67
2022/06/06 14:27:31;;;;;;;3.78;3.33;;;;;;;30.34;40.02;96763.53;4745573;30;20330;-66
2022/06/06 14:30:07;;;;;;;3.10;3.00;;;;;;;29.14;43.08;96767.50;4744698;30;20546;-66
2022/06/06 14:32:58;;;;;;;3.30;2.85;;;;;;;28.99;42.80;96761.06;4743694;30;20528;-66
2022/06/06 14:35:30;;;;;;;3.75;3.45;;;;;;;29.23;42.89;96762.41;4745050;30;20064;-65
2022/06/06 14:38:17;;;;;;;4.30;3.08;;;;;;;27.69;46.20;96766.50;4746065;30;20076;-67
2022/06/06 14:41:01;;;;;;;2.90;2.70;;;;;;;26.82;46.71;96717.97;4745899;30;20064;-66
2022/06/06 14:43:30;;;;;;;;;;;;;;;27.21;46.02;96762.19;4746128;30;20071;-67
2022/06/06 14:46:00;;;;;;;3.35;3.05;;;;;;;27.26;46.12;96764.41;4743052;30;19930;-66
2022/06/06 14:48:41;;;;;;;3.05;2.80;;;;;;;27.09;46.67;96754.72;4741636;30;20177;-64
2022/06/06 14:51:11;;;;;;;3.67;3.38;;;;;;;28.08;43.61;96742.34;4745354;30;20064;-65
2022/06/06 14:53:53;;;;;;;3.72;3.28;;;;;;;28.28;42.64;96753.00;4744133;30;20071;-65
2022/06/06 14:56:45;;;;;;;2.88;2.78;;;;;;;28.26;42.71;96754.78;4744348;30;20064;-65
2022/06/06 14:59:16;;;;;;;3.72;3.42;;;;;;;29.33;41.53;96754.50;4747181;30;20084;-66
2022/06/06 15:01:47;;;;;;;3.42;3.15;;;;;;;29.18;42.03;96776.63;4758257;30;20218;-65
2022/06/06 15:04:27;;;;;;;3.05;2.85;;;;;;;28.70;43.63;96767.69;4758669;30;20076;-64
2022/06/06 15:06:58;;;;;;;3.13;2.92;;;;;;;28.46;44.13;96786.97;4744849;30;20067;-65
2022/06/06 15:09:35;;;;;;;3.30;3.03;;;;;;;27.67;44.89;96746.28;4745484;30;20447;-65
2022/06/06 15:12:04;;;;;;;3.50;3.30;;;;;;;26.89;47.46;96790.75;4744807;30;20539;-65
2022/06/06 15:14:36;;;;;;;2.88;2.67;;;;;;;25.55;50.48;96779.41;4758434;30;20075;-65
2022/06/06 15:17:10;;;;;;;3.60;3.30;;;;;;;25.51;52.92;96815.66;4758028;30;20516;-65
2022/06/06 15:19:48;;;;;;;2.78;2.58;;;;;;;25.15;52.99;96820.06;4743432;30;20075;-65
2022/06/06 15:22:40;;;;;;;2.70;2.50;;;;;;;24.68;52.76;96824.56;4740306;30;20068;-65
2022/06/06 15:25:18;;;;;;;3.53;3.22;;;;;;;25.07;52.87;96824.47;4740276;30;20060;-66
2022/06/06 15:28:04;;;;;;;3.65;2.92;;;;;;;24.74;53.73;96829.13;4725831;30;20065;-66
2022/06/06 15:30:37;;;;;;;5.40;3.20;;;;;;;24.23;54.43;96765.72;4741006;30;20083;-66
2022/06/06 15:33:33;;;;;;;2.90;2.70;;;;;;;24.90;54.76;96853.56;4740392;30;20130;-67
2022/06/06 15:36:11;;;;;;;2.70;2.50;;;;;;;25.02;54.50;96861.94;4739800;30;20425;-66
2022/06/06 15:39:05;;;;;;;3.80;2.70;;;;;;;24.67;54.59;96857.78;4727229;30;20441;-65
2022/06/06 15:41:54;;;;;;;3.08;2.75;;;;;;;24.56;55.44;96857.41;4727098;30;20104;-66
2022/06/06 15:44:40;;;;;;;2.90;2.70;;;;;;;25.40;52.79;96852.25;4726797;30;20065;-65
2022/06/06 15:47:21;;;;;;;2.92;2.72;;;;;;;25.63;50.54;96834.56;4726774;30;20592;-66
2022/06/06 15:50:10;;;;;;;3.80;3.50;;;;;;;25.20;53.60;96867.63;4726577;30;20073;-66
2022/06/06 15:53:04;;;;;;;2.40;2.20;;;;;;;25.00;51.65;96847.47;4726623;30;20588;-66
2022/06/06 15:55:55;;;;;;;3.10;2.65;;;;;;;24.87;51.62;96849.63;4740284;30;20061;-67
2022/06/06 15:58:22;;;;;;;2.95;2.75;;;;;;;24.55;52.98;96857.88;4726795;30;20540;-66
2022/06/06 16:01:07;;;;;;;3.30;3.10;;;;;;;24.98;52.24;96843.50;4739889;30;20071;-66
2022/06/06 16:03:38;;;;;;;5.57;3.35;;;;;;;25.90;49.65;96840.19;4726761;30;20470;-67
2022/06/06 16:06:08;;;;;;;3.08;2.63;;;;;;;26.55;47.86;96846.00;4726605;30;20069;-65
2022/06/06 16:08:49;;;;;;;5.75;2.90;;;;;;;26.74;47.52;96847.50;4725274;30;20065;-67
2022/06/06 16:11:25;;;;;;;3.60;2.60;;;;;;;26.74;46.67;96847.50;4726412;30;20072;-65
2022/06/06 16:14:40;;;;;;;3.55;3.35;;;;;;;26.29;48.39;96844.84;4739781;30;20056;-66
2022/06/06 16:17:19;;;;;;;2.97;2.75;;;;;;;26.05;48.89;96812.75;4727123;30;20075;-65
2022/06/06 16:19:52;;;;;;;3.67;3.38;;;;;;;26.43;49.30;96849.84;4726345;30;20547;-65
2022/06/06 16:22:39;;;;;;;3.40;3.10;;;;;;;23.15;49.77;96442.91;4724984;30;20071;-66
2022/06/06 16:25:29;;;;;;;3.65;3.28;;;;;;;25.10;52.90;96856.75;4726437;30;20069;-66
2022/06/06 16:28:01;;;;;;;5.15;3.55;;;;;;;24.69;54.04;96860.91;4725054;30;20079;-65
2022/06/06 16:30:35;;;;;;;3.40;3.10;;;;;;;24.53;54.80;96868.88;4726705;30;20064;-66
2022/06/06 16:33:02;;;;;;;3.92;3.63;;;;;;;24.74;54.10;96857.47;4726729;30;20517;-66
2022/06/06 16:35:40;;;;;;;6.72;3.70;;;;;;;25.73;51.37;96856.00;4725031;30;20068;-65
2022/06/06 16:38:13;;;;;;;3.97;3.67;;;;;;;26.88;47.79;96841.13;4725067;30;20072;-65
2022/06/06 16:40:40;;;;;;;3.88;3.10;;;;;;;27.88;46.27;96861.88;4724455;30;20060;-67
2022/06/06 16:49:22;;;;;;;3.38;3.17;;;;;;;26.51;47.34;96774.34;4726297;30;20064;-65
2022/06/06 16:51:57;;;;;;;9.43;4.97;;;;;;;26.49;49.51;96864.97;4734325;30;20544;-67
2022/06/06 16:54:31;;;;;;;2.75;2.55;;;;;;;26.23;49.83;96869.47;4713025;30;20384;-64
2022/06/06 16:57:29;;;;;;;3.70;3.40;;;;;;;26.95;48.52;96880.59;4715332;30;20060;-60
2022/06/06 17:00:16;;;;;;;3.90;3.40;;;;;;;28.05;46.20;96868.69;4725726;30;20088;-60
2022/06/06 17:03:00;;;;;;;3.60;3.30;;;;;;;28.58;44.51;96887.75;4726216;30;20071;-60
2022/06/06 17:08:41;;;;;;;2.88;2.67;;;;;;;28.43;44.31;96898.34;4725540;30;20466;-61
2022/06/06 17:11:35;;;;;;;3.72;3.42;;;;;;;28.48;42.69;96900.53;4719361;30;20150;-62
2022/06/06 17:14:17;;;;;;;6.07;4.40;;;;;;;27.77;44.02;96827.47;4725326;30;20060;-60
2022/06/06 17:17:22;;;;;;;4.05;3.60;;;;;;;27.47;44.34;96882.00;4725082;30;20906;-58
2022/06/06 17:20:15;;;;;;;5.03;4.60;;;;;;;26.16;47.57;96904.69;4709724;30;20592;-60
2022/06/06 17:22:42;;;;;;;3.13;2.83;;;;;;;25.04;51.10;96916.13;4738323;30;20072;-61
2022/06/06 17:25:37;;;;;;;3.50;3.20;;;;;;;25.05;51.27;96917.69;4742009;30;20133;-60
2022/06/06 17:28:23;;;;;;;3.95;3.65;;;;;;;24.98;52.41;96923.66;4756023;30;20067;-59
2022/06/06 17:31:33;;;;;;;5.50;3.75;;;;;;;24.58;53.52;96934.19;4755870;30;20256;-59
2022/06/06 17:34:26;;;;;;;5.63;3.90;;;;;;;23.76;54.92;96930.03;4756923;30;20064;-59
2022/06/06 17:37:14;;;;;;;3.38;3.00;;;;;;;23.44;55.94;96938.88;4741782;30;20674;-59
2022/06/06 17:39:48;;;;;;;3.22;2.92;;;;;;;23.04;56.76;96911.59;4743287;30;20087;-60
2022/06/06 17:42:24;;;;;;;3.45;3.08;;;;;;;23.07;57.63;96910.69;4742850;30;20271;-59
2022/06/06 17:45:31;;;;;;;7.32;4.60;;;;;;;23.07;57.87;96956.72;4741631;30;20076;-60
2022/06/06 17:48:12;;;;;;;3.85;2.35;;;;;;;22.35;60.01;96961.44;4722920;30;20071;-60
2022/06/06 17:50:58;;;;;;;6.20;3.85;;;;;;;22.45;60.46;96958.28;4754245;30;20072;-60
2022/06/06 17:53:46;;;;;;;6.70;4.55;;;;;;;22.35;60.93;96967.09;4742886;30;20095;-60
2022/06/06 17:56:21;;;;;;;4.82;3.42;;;;;;;21.97;62.20;96969.81;4741561;30;20060;-60
2022/06/06 17:58:58;;;;;;;4.93;3.35;;;;;;;21.93;62.99;96963.47;4743474;30;20064;-60
2022/06/06 18:01:49;;;;;;;4.57;3.47;;;;;;;21.70;64.13;96965.75;4742735;30;20072;-60
2022/06/06 18:04:24;;;;;;;5.70;4.07;;;;;;;21.74;64.22;96957.97;4756596;30;20071;-60
2022/06/06 18:07:08;;;;;;;5.20;4.07;;;;;;;21.69;64.76;96970.59;4742794;30;20096;-60
2022/06/06 18:09:53;;;;;;;3.80;3.38;;;;;;;21.45;65.80;96971.28;4756103;30;20083;-62
2022/06/06 18:12:38;;;;;;;6.85;4.15;;;;;;;21.35;65.98;96977.97;4755991;30;20064;-60
2022/06/06 18:15:19;;;;;;;7.35;3.90;;;;;;;21.42;66.41;96972.94;4742752;30;20128;-61
2022/06/06 18:18:17;;;;;;;3.20;2.65;;;;;;;21.54;66.51;96975.03;4756055;30;20067;-60
2022/06/06 18:20:47;;;;;;;4.88;2.72;;;;;;;21.67;66.60;96984.31;4756240;30;20075;-61
2022/06/06 18:23:26;;;;;;;2.80;2.60;;;;;;;21.72;66.67;96983.03;4745204;30;20067;-60
2022/06/06 18:26:00;;;;;;;4.60;2.60;;;;;;;20.91;67.03;96869.66;4745621;30;20128;-60
2022/06/06 18:28:36;;;;;;;4.45;3.20;;;;;;;21.75;66.92;96985.75;4758614;30;20495;-60
2022/06/06 18:31:03;;;;;;;2.78;2.58;;;;;;;21.68;67.30;96977.47;4759240;30;20060;-59
2022/06/06 18:33:34;;;;;;;4.43;2.78;;;;;;;21.42;66.64;96960.88;4759064;30;20071;-61
2022/06/06 18:36:01;;;;;;;3.65;3.15;;;;;;;21.24;66.79;96936.00;4758794;30;20464;-61
2022/06/06 18:38:44;;;;;;;5.45;4.20;;;;;;;21.26;66.64;96944.78;4745674;30;20429;-60
2022/06/06 18:41:21;;;;;;;3.77;2.83;;;;;;;21.48;68.08;96993.69;4745653;30;20445;-60
2022/06/06 18:43:48;;;;;;;3.97;2.80;;;;;;;21.15;66.97;96952.72;4745206;30;20068;-60
2022/06/06 18:46:17;;;;;;;3.20;2.78;;;;;;;21.35;67.25;96992.88;4745635;30;20078;-60
2022/06/06 18:49:00;;;;;;;8.27;4.43;;;;;;;21.30;68.33;97001.84;4746034;30;20071;-60
2022/06/06 18:51:31;;;;;;;7.47;4.32;;;;;;;21.20;66.79;96994.44;4744201;30;20060;-59
2022/06/06 18:54:03;;;;;;;5.28;3.58;;;;;;;21.09;67.32;96977.03;4758887;30;20067;-60
2022/06/06 18:56:41;;;;;;;7.47;3.60;;;;;;;21.26;67.82;96997.53;4744131;30;20556;-60